createdAt,value
2023-02-19T00:05:02.013Z,10.00
2023-02-19T00:10:05.570Z,10.00
2023-02-19T00:15:07.712Z,10.00
2023-02-19T00:20:10.056Z,10.00
2023-02-19T00:25:13.158Z,10.00
2023-02-19T00:30:14.934Z,10.00
2023-02-19T00:35:16.935Z,10.10
2023-02-19T00:40:20.152Z,10.00
2023-02-19T00:45:22.057Z,10.10
2023-02-19T00:50:23.754Z,10.10
2023-02-19T00:55:26.941Z,10.00
2023-02-19T01:00:28.671Z,10.00
2023-02-19T01:05:30.457Z,10.00
2023-02-19T01:10:33.614Z,10.10
2023-02-19T01:15:35.990Z,10.10
2023-02-19T01:20:39.017Z,10.10
2023-02-19T01:25:42.611Z,10.10
2023-02-19T01:30:44.370Z,10.10
2023-02-19T01:35:46.096Z,10.00
2023-02-19T01:40:55.731Z,10.00
2023-02-19T01:45:57.519Z,10.00
2023-02-19T01:51:07.096Z,10.00
2023-02-19T01:56:11.487Z,10.00
2023-02-19T02:01:13.916Z,10.00
2023-02-19T02:06:21.250Z,10.00
2023-02-19T02:11:25.112Z,10.00
2023-02-19T02:16:36.993Z,9.90
2023-02-19T02:22:04.484Z,9.90
2023-02-19T02:27:27.313Z,9.80
2023-02-19T02:32:37.188Z,9.80
2023-02-19T02:37:42.085Z,9.80
2023-02-19T02:42:44.127Z,9.80
2023-02-19T02:47:53.345Z,9.80
2023-02-19T02:53:00.060Z,9.80
2023-02-19T02:58:02.536Z,9.80
2023-02-19T03:03:08.096Z,9.70
2023-02-19T03:08:14.629Z,9.70
2023-02-19T03:13:20.631Z,9.60
2023-02-19T03:18:26.240Z,9.60
2023-02-19T03:23:32.502Z,9.60
2023-02-19T03:28:37.694Z,9.50
2023-02-19T03:33:41.616Z,9.60
2023-02-19T03:38:48.247Z,9.70
2023-02-19T03:43:55.812Z,9.60
2023-02-19T03:49:04.002Z,9.60
2023-02-19T03:54:13.061Z,9.70
2023-02-19T03:59:19.035Z,9.80
2023-02-19T04:04:27.426Z,9.80
2023-02-19T04:09:33.175Z,9.80
2023-02-19T04:14:39.577Z,9.70
2023-02-19T04:19:43.086Z,9.70
2023-02-19T04:24:49.147Z,9.70
2023-02-19T04:29:50.951Z,9.70
2023-02-19T04:34:54.447Z,9.70
2023-02-19T04:39:58.620Z,9.70
2023-02-19T04:45:00.530Z,9.50
2023-02-19T04:50:06.539Z,9.50
2023-02-19T04:55:09.147Z,9.50
2023-02-19T05:00:11.828Z,9.50
2023-02-19T05:05:17.228Z,9.40
2023-02-19T05:10:19.100Z,9.50
2023-02-19T05:15:20.870Z,9.50
2023-02-19T05:20:24.016Z,9.60
2023-02-19T05:25:25.717Z,9.60
2023-02-19T05:30:30.057Z,9.70
2023-02-19T05:35:40.117Z,9.70
2023-02-19T05:40:43.059Z,9.60
2023-02-19T05:45:44.833Z,9.40
2023-02-19T05:50:47.956Z,9.40
2023-02-19T05:55:49.771Z,9.50
2023-02-19T06:00:51.961Z,9.40
2023-02-19T06:05:55.037Z,9.30
2023-02-19T06:10:57.883Z,9.20
2023-02-19T06:15:59.819Z,9.10
2023-02-19T06:21:11.606Z,9.10
2023-02-19T06:26:16.113Z,9.30
2023-02-19T06:31:19.299Z,9.20
2023-02-19T06:36:23.425Z,9.20
2023-02-19T06:41:25.313Z,9.20
2023-02-19T06:46:27.183Z,9.40
2023-02-19T06:51:30.417Z,9.50
2023-02-19T06:56:33.903Z,9.60
2023-02-19T07:01:36.530Z,9.60
2023-02-19T07:06:39.743Z,9.70
2023-02-19T07:11:41.484Z,9.80
2023-02-19T07:16:43.563Z,9.80
2023-02-19T07:21:46.754Z,9.80
2023-02-19T07:26:48.446Z,9.80
2023-02-19T07:31:50.303Z,9.90
2023-02-19T07:36:53.468Z,9.90
2023-02-19T07:41:55.288Z,9.90
2023-02-19T07:46:57.039Z,10.00
2023-02-19T07:52:00.190Z,10.10
2023-02-19T07:57:01.921Z,10.10
2023-02-19T08:02:03.680Z,10.10
2023-02-19T08:07:06.764Z,10.20
2023-02-19T08:12:11.872Z,10.30
2023-02-19T08:17:13.514Z,10.40
2023-02-19T08:22:16.623Z,10.40
2023-02-19T08:27:18.364Z,10.30
2023-02-19T08:32:20.016Z,10.10
2023-02-19T08:37:23.202Z,10.10
2023-02-19T08:42:24.919Z,10.20
2023-02-19T08:47:26.678Z,10.30
2023-02-19T08:52:29.872Z,10.50
2023-02-19T08:57:31.626Z,10.50
2023-02-19T09:02:33.868Z,10.70
2023-02-19T09:07:37.275Z,10.80
2023-02-19T09:12:39.046Z,10.80
2023-02-19T09:18:16.886Z,11.10
2023-02-19T09:23:20.115Z,11.10
2023-02-19T09:28:21.850Z,11.10
2023-02-19T09:33:23.737Z,11.20
2023-02-19T09:38:53.584Z,11.30
2023-02-19T09:44:01.369Z,11.60
2023-02-19T09:49:06.475Z,11.70
2023-02-19T09:54:39.624Z,11.70
2023-02-19T09:59:45.205Z,11.50
2023-02-19T10:04:47.898Z,11.40
2023-02-19T10:09:55.388Z,11.20
2023-02-19T10:15:05.200Z,11.00
2023-02-19T10:20:10.209Z,10.80
2023-02-19T10:25:16.003Z,10.70
2023-02-19T10:30:22.146Z,10.80
2023-02-19T10:35:24.031Z,10.90
2023-02-19T10:40:28.673Z,11.10
2023-02-19T10:45:40.650Z,11.20
2023-02-19T10:50:42.479Z,11.20
2023-02-19T10:55:48.323Z,10.70
2023-02-19T11:01:14.607Z,10.00
2023-02-19T11:06:19.692Z,9.90
2023-02-19T11:11:24.034Z,9.90
2023-02-19T11:16:46.205Z,9.80
2023-02-19T11:21:48.266Z,10.00
2023-02-19T11:26:51.418Z,10.30
2023-02-19T11:31:53.208Z,10.60
2023-02-19T11:37:08.922Z,11.10
2023-02-19T11:42:33.450Z,11.60
2023-02-19T11:48:05.610Z,12.30
2023-02-19T11:53:17.037Z,12.80
2023-02-19T11:58:49.362Z,12.60
2023-02-19T12:04:16.422Z,12.10
2023-02-19T12:09:30.036Z,11.90
2023-02-19T12:15:10.560Z,11.60
2023-02-19T12:20:21.582Z,11.20
2023-02-19T12:25:44.404Z,11.00
2023-02-19T12:31:21.743Z,11.20
2023-02-19T12:36:31.199Z,12.10
2023-02-19T12:41:42.674Z,12.70
2023-02-19T12:46:49.404Z,13.60
2023-02-19T12:51:57.827Z,13.10
2023-02-19T12:57:02.934Z,12.50
2023-02-19T13:02:15.025Z,12.50
2023-02-19T13:07:20.520Z,12.70
2023-02-19T13:12:26.102Z,12.50
2023-02-19T13:17:38.385Z,12.30
2023-02-19T13:22:45.435Z,12.40
2023-02-19T13:28:06.393Z,12.40
2023-02-19T13:33:27.593Z,12.50
2023-02-19T13:38:29.499Z,12.30
2023-02-19T13:43:35.171Z,11.90
2023-02-19T13:48:40.558Z,11.60
2023-02-19T13:53:58.964Z,11.40
2023-02-19T13:59:13.904Z,11.10
2023-02-19T14:04:20.642Z,11.00
2023-02-19T14:09:46.691Z,10.70
2023-02-19T14:14:49.034Z,10.20
2023-02-19T14:20:01.928Z,9.60
2023-02-19T14:25:07.814Z,9.60
2023-02-19T14:30:12.084Z,9.40
2023-02-19T14:35:20.194Z,9.20
2023-02-19T14:40:39.342Z,9.20
2023-02-19T14:45:44.254Z,9.20
2023-02-19T14:50:50.481Z,9.20
2023-02-19T14:55:54.832Z,9.10
2023-02-19T15:00:56.911Z,9.00
2023-02-19T15:06:03.346Z,9.00
2023-02-19T15:11:11.130Z,9.10
2023-02-19T15:16:19.129Z,9.20
2023-02-19T15:21:25.272Z,9.20
2023-02-19T15:26:34.050Z,9.20
2023-02-19T15:31:36.207Z,9.40
2023-02-19T15:36:39.509Z,9.20
2023-02-19T15:41:41.221Z,9.30
2023-02-19T15:46:44.598Z,9.20
2023-02-19T15:51:52.216Z,9.20
2023-02-19T15:56:55.947Z,9.10
2023-02-19T16:01:58.991Z,9.10
2023-02-19T16:07:03.248Z,9.20
2023-02-19T16:12:20.731Z,9.10
2023-02-19T16:17:25.465Z,9.10
2023-02-19T16:22:31.257Z,9.10
2023-02-19T16:27:35.242Z,9.10
2023-02-19T16:32:36.999Z,9.10
2023-02-19T16:37:41.619Z,9.20
2023-02-19T16:43:26.137Z,9.20
2023-02-19T16:48:28.354Z,9.10
2023-02-19T16:53:31.431Z,9.10
2023-02-19T16:58:33.171Z,8.90
2023-02-19T17:03:37.378Z,8.70
2023-02-19T17:08:42.062Z,8.60
2023-02-19T17:13:44.804Z,8.60
2023-02-19T17:18:46.879Z,8.50
2023-02-19T17:23:50.323Z,8.50
2023-02-19T17:28:52.269Z,8.40
2023-02-19T17:33:54.428Z,8.30
2023-02-19T17:38:57.902Z,8.20
2023-02-19T17:43:59.680Z,8.20
2023-02-19T17:49:01.361Z,8.20
2023-02-19T17:54:06.344Z,8.20
2023-02-19T17:59:10.072Z,8.20
2023-02-19T18:04:11.897Z,8.20
2023-02-19T18:09:15.044Z,8.30
2023-02-19T18:14:16.856Z,8.20
2023-02-19T18:19:19.072Z,8.20
2023-02-19T18:24:22.234Z,8.30
2023-02-19T18:29:23.988Z,8.40
2023-02-19T18:34:25.695Z,8.40
2023-02-19T18:39:28.717Z,8.40
2023-02-19T18:44:30.495Z,8.60
2023-02-19T18:49:32.314Z,8.60
2023-02-19T18:54:35.399Z,8.50
2023-02-19T18:59:38.999Z,8.50
2023-02-19T19:04:41.146Z,8.40
2023-02-19T19:09:44.291Z,8.50
2023-02-19T19:14:46.173Z,8.50
2023-02-19T19:19:47.902Z,8.40
2023-02-19T19:24:51.032Z,8.40
2023-02-19T19:29:52.825Z,8.40
2023-02-19T19:34:54.679Z,8.50
2023-02-19T19:39:57.998Z,8.60
2023-02-19T19:44:59.832Z,8.60
2023-02-19T19:50:04.261Z,8.60
2023-02-19T19:55:08.286Z,8.70
2023-02-19T20:00:15.465Z,8.60
2023-02-19T20:05:23.973Z,8.70
2023-02-19T20:16:46.019Z,8.70
2023-02-19T20:33:15.181Z,8.80
2023-02-19T20:38:19.693Z,8.70
2023-02-19T20:48:42.189Z,8.70
2023-02-19T20:53:44.128Z,8.70
2023-02-19T20:58:45.900Z,8.70
2023-02-19T21:03:54.597Z,8.80
2023-02-19T21:08:56.482Z,8.80
2023-02-19T21:13:58.475Z,8.80
2023-02-19T21:19:01.960Z,8.70
2023-02-19T21:24:04.148Z,8.70
2023-02-19T21:29:07.196Z,8.60
2023-02-19T21:34:12.028Z,8.50
2023-02-19T21:39:15.888Z,8.50
2023-02-19T21:44:18.073Z,8.70
2023-02-19T21:49:21.389Z,8.60
2023-02-19T21:54:25.476Z,8.70
2023-02-19T21:59:27.499Z,8.50
2023-02-19T22:04:30.724Z,8.40
2023-02-19T22:09:32.671Z,8.30
2023-02-19T22:14:34.682Z,8.30
2023-02-19T22:19:38.136Z,8.40
2023-02-19T22:24:39.953Z,8.20
2023-02-19T22:29:42.069Z,8.20
2023-02-19T22:34:45.476Z,8.20
2023-02-19T22:39:47.329Z,8.20
2023-02-19T22:44:49.135Z,8.10
2023-02-19T22:49:52.632Z,8.00
2023-02-19T22:54:54.645Z,7.90
2023-02-19T22:59:56.442Z,7.80
2023-02-19T23:04:59.747Z,7.70
2023-02-19T23:10:01.655Z,7.60
2023-02-19T23:15:04.366Z,7.60
2023-02-19T23:20:08.879Z,7.70
2023-02-19T23:25:10.894Z,7.60
2023-02-19T23:30:13.274Z,7.50
2023-02-19T23:35:16.494Z,7.40
2023-02-19T23:40:21.852Z,7.30
2023-02-19T23:45:23.856Z,7.00
2023-02-19T23:50:27.069Z,6.80
2023-02-19T23:55:28.993Z,6.70
